createdAt,value
2023-02-09T00:01:27.787Z,26.63
2023-02-09T00:03:55.489Z,20.40
2023-02-09T00:06:24.155Z,20.95
2023-02-09T00:08:52.707Z,28.45
2023-02-09T00:11:45.629Z,22.80
2023-02-09T00:14:13.926Z,21.65
2023-02-09T00:16:41.816Z,22.30
2023-02-09T00:19:08.915Z,26.58
2023-02-09T00:21:36.061Z,25.02
2023-02-09T00:24:03.501Z,22.33
2023-02-09T00:26:30.595Z,27.30
2023-02-09T00:28:57.597Z,26.45
2023-02-09T00:31:24.756Z,21.95
2023-02-09T00:33:51.868Z,21.77
2023-02-09T00:36:19.252Z,26.02
2023-02-09T00:38:46.352Z,30.58
2023-02-09T00:41:14.221Z,26.35
2023-02-09T00:43:41.461Z,22.48
2023-02-09T00:46:09.691Z,26.20
2023-02-09T00:48:36.786Z,22.98
2023-02-09T00:51:04.023Z,26.63
2023-02-09T00:53:31.054Z,28.27
2023-02-09T00:56:00.051Z,22.25
2023-02-09T00:58:27.136Z,29.48
2023-02-09T01:00:54.205Z,21.95
2023-02-09T01:03:21.482Z,30.83
2023-02-09T01:05:48.513Z,22.50
2023-02-09T01:08:15.540Z,22.00
2023-02-09T01:10:42.828Z,24.17
2023-02-09T01:13:10.131Z,23.05
2023-02-09T01:15:40.175Z,27.45
2023-02-09T01:18:07.878Z,25.90
2023-02-09T01:20:35.855Z,25.55
2023-02-09T01:23:03.035Z,27.92
2023-02-09T01:25:30.114Z,22.33
2023-02-09T01:27:57.148Z,25.63
2023-02-09T01:30:24.185Z,24.27
2023-02-09T01:32:51.205Z,26.52
2023-02-09T01:35:18.383Z,23.10
2023-02-09T01:37:45.633Z,26.13
2023-02-09T01:40:12.893Z,22.88
2023-02-09T01:42:40.810Z,28.50
2023-02-09T01:45:15.952Z,26.25
2023-02-09T01:47:48.086Z,26.67
2023-02-09T01:50:16.071Z,25.73
2023-02-09T01:52:44.171Z,21.27
2023-02-09T01:55:17.704Z,22.33
2023-02-09T01:57:56.576Z,25.23
2023-02-09T02:00:24.994Z,30.15
2023-02-09T02:02:57.715Z,18.75
2023-02-09T02:05:26.735Z,26.42
2023-02-09T02:08:13.674Z,31.30
2023-02-09T02:10:41.186Z,30.40
2023-02-09T02:13:08.400Z,27.85
2023-02-09T02:15:44.092Z,34.78
2023-02-09T02:18:24.983Z,25.38
2023-02-09T02:21:29.636Z,25.67
2023-02-09T02:24:24.309Z,22.83
2023-02-09T02:27:23.636Z,23.90
2023-02-09T02:30:13.437Z,20.30
2023-02-09T02:32:52.432Z,22.55
2023-02-09T02:35:44.062Z,22.30
2023-02-09T02:38:33.315Z,21.25
2023-02-09T02:41:11.107Z,26.30
2023-02-09T02:44:15.704Z,25.52
2023-02-09T02:46:48.836Z,29.05
2023-02-09T02:49:18.649Z,21.15
2023-02-09T02:51:49.473Z,27.58
2023-02-09T02:54:21.252Z,19.35
2023-02-09T02:56:55.395Z,21.40
2023-02-09T02:59:27.494Z,24.00
2023-02-09T03:02:06.497Z,19.58
2023-02-09T03:04:36.248Z,21.50
2023-02-09T03:07:07.565Z,24.83
2023-02-09T03:09:34.642Z,21.13
2023-02-09T03:12:14.760Z,26.35
2023-02-09T03:15:23.221Z,24.30
2023-02-09T03:18:04.049Z,23.67
2023-02-09T03:20:52.308Z,23.25
2023-02-09T03:23:54.830Z,20.00
2023-02-09T03:26:28.333Z,27.92
2023-02-09T03:28:57.942Z,21.02
2023-02-09T03:31:27.193Z,25.88
2023-02-09T03:33:57.558Z,32.45
2023-02-09T03:36:26.222Z,30.30
2023-02-09T03:38:53.284Z,28.85
2023-02-09T03:41:20.337Z,26.98
2023-02-09T03:44:05.752Z,30.77
2023-02-09T03:46:33.915Z,25.50
2023-02-09T03:49:01.020Z,32.90
2023-02-09T03:51:28.039Z,27.25
2023-02-09T03:53:55.092Z,23.38
2023-02-09T03:56:25.225Z,27.73
2023-02-09T03:58:52.367Z,24.02
2023-02-09T04:01:19.448Z,31.95
2023-02-09T04:03:46.542Z,31.38
2023-02-09T04:06:13.618Z,22.73
2023-02-09T04:08:43.213Z,23.02
2023-02-09T04:11:10.319Z,31.10
2023-02-09T04:13:37.404Z,29.10
2023-02-09T04:16:04.855Z,23.65
2023-02-09T04:18:31.918Z,24.40
2023-02-09T04:20:58.899Z,29.58
2023-02-09T04:23:25.924Z,27.00
2023-02-09T04:25:52.986Z,28.90
2023-02-09T04:28:20.474Z,26.38
2023-02-09T04:30:54.043Z,24.20
2023-02-09T04:33:23.106Z,32.30
2023-02-09T04:35:50.818Z,30.73
2023-02-09T04:38:20.582Z,28.90
2023-02-09T04:40:53.492Z,26.85
2023-02-09T04:43:20.761Z,24.52
2023-02-09T04:45:48.097Z,26.95
2023-02-09T04:48:17.065Z,29.40
2023-02-09T04:50:44.646Z,21.65
2023-02-09T04:53:12.149Z,29.55
2023-02-09T04:55:40.856Z,28.52
2023-02-09T04:58:27.807Z,23.10
2023-02-09T05:00:56.721Z,20.08
2023-02-09T05:03:26.111Z,29.90
2023-02-09T05:06:04.849Z,26.50
2023-02-09T05:08:33.097Z,27.42
2023-02-09T05:11:00.405Z,22.48
2023-02-09T05:13:27.892Z,31.60
2023-02-09T05:15:55.400Z,38.72
2023-02-09T05:18:23.751Z,30.45
2023-02-09T05:20:51.009Z,25.38
2023-02-09T05:23:18.603Z,23.58
2023-02-09T05:25:46.326Z,28.75
2023-02-09T05:28:13.729Z,24.45
2023-02-09T05:30:41.002Z,23.02
2023-02-09T05:33:08.211Z,29.75
2023-02-09T05:35:35.952Z,24.92
2023-02-09T05:38:02.961Z,22.45
2023-02-09T05:40:30.035Z,24.75
2023-02-09T05:42:57.685Z,26.88
2023-02-09T05:45:24.767Z,26.80
2023-02-09T05:47:51.858Z,29.00
2023-02-09T05:50:18.995Z,30.77
2023-02-09T05:52:46.048Z,21.90
2023-02-09T05:55:13.073Z,27.95
2023-02-09T05:57:40.059Z,25.00
2023-02-09T06:00:07.661Z,24.77
2023-02-09T06:02:34.757Z,27.50
2023-02-09T06:05:01.863Z,22.45
2023-02-09T06:07:29.040Z,22.90
2023-02-09T06:09:56.023Z,28.35
2023-02-09T06:12:23.137Z,26.95
2023-02-09T06:14:50.179Z,26.73
2023-02-09T06:17:18.146Z,25.80
2023-02-09T06:19:45.230Z,26.30
2023-02-09T06:22:12.285Z,23.83
2023-02-09T06:24:39.315Z,31.50
2023-02-09T06:27:06.347Z,26.42
2023-02-09T06:29:33.480Z,24.92
2023-02-09T06:32:00.836Z,27.20
2023-02-09T06:34:28.057Z,22.75
2023-02-09T06:36:55.170Z,28.20
2023-02-09T06:39:22.406Z,23.23
2023-02-09T06:41:49.431Z,29.27
2023-02-09T06:44:16.554Z,29.13
2023-02-09T06:46:46.507Z,24.13
2023-02-09T06:49:13.550Z,30.55
2023-02-09T06:51:40.685Z,25.50
2023-02-09T06:54:07.904Z,27.77
2023-02-09T06:56:35.017Z,27.27
2023-02-09T06:59:02.024Z,26.30
2023-02-09T07:01:29.119Z,23.55
2023-02-09T07:03:56.173Z,23.63
2023-02-09T07:06:23.243Z,25.10
2023-02-09T07:08:50.682Z,23.20
2023-02-09T07:11:19.428Z,33.42
2023-02-09T07:13:47.158Z,29.00
2023-02-09T07:16:15.334Z,24.80
2023-02-09T07:18:43.033Z,26.58
2023-02-09T07:21:15.815Z,19.83
2023-02-09T07:23:42.957Z,25.55
2023-02-09T07:26:15.422Z,28.13
2023-02-09T07:28:43.155Z,28.02
2023-02-09T07:31:12.842Z,26.67
2023-02-09T07:33:40.037Z,28.00
2023-02-09T07:36:10.095Z,26.05
2023-02-09T07:38:38.754Z,27.67
2023-02-09T07:41:14.295Z,23.48
2023-02-09T07:43:41.357Z,29.45
2023-02-09T07:46:09.715Z,27.83
2023-02-09T07:48:37.425Z,29.45
2023-02-09T07:51:05.420Z,25.77
2023-02-09T07:53:33.863Z,25.55
2023-02-09T07:56:00.981Z,31.73
2023-02-09T07:58:28.188Z,25.77
2023-02-09T08:00:55.269Z,27.27
2023-02-09T08:03:24.071Z,26.83
2023-02-09T08:06:06.192Z,23.10
2023-02-09T08:08:33.237Z,26.15
2023-02-09T08:11:04.473Z,23.67
2023-02-09T08:13:38.233Z,24.20
2023-02-09T08:16:08.885Z,24.50
2023-02-09T08:18:44.912Z,29.90
2023-02-09T08:21:15.970Z,24.48
2023-02-09T08:23:46.296Z,23.73
2023-02-09T08:26:14.786Z,26.83
2023-02-09T08:28:45.128Z,24.50
2023-02-09T08:31:14.513Z,29.65
2023-02-09T08:33:42.765Z,28.20
2023-02-09T08:36:11.320Z,26.05
2023-02-09T08:38:38.616Z,24.58
2023-02-09T08:41:08.224Z,26.95
2023-02-09T08:43:36.047Z,27.25
2023-02-09T08:46:12.158Z,23.42
2023-02-09T08:48:42.054Z,24.35
2023-02-09T08:51:12.719Z,21.02
2023-02-09T08:53:40.404Z,24.30
2023-02-09T08:56:07.581Z,26.77
2023-02-09T08:58:35.139Z,27.58
2023-02-09T09:01:02.330Z,24.70
2023-02-09T09:03:31.849Z,32.15
2023-02-09T09:06:07.165Z,26.67
2023-02-09T09:08:35.903Z,25.42
2023-02-09T09:11:03.405Z,27.33
2023-02-09T09:13:30.608Z,25.65
2023-02-09T09:15:57.751Z,23.65
2023-02-09T09:18:26.006Z,23.67
2023-02-09T09:20:53.541Z,25.20
2023-02-09T09:23:21.544Z,28.63
2023-02-09T09:25:48.987Z,27.90
2023-02-09T09:28:16.900Z,22.23
2023-02-09T09:30:44.103Z,22.63
2023-02-09T09:33:11.258Z,26.30
2023-02-09T09:35:38.611Z,22.23
2023-02-09T09:38:05.695Z,21.85
2023-02-09T09:40:37.525Z,23.15
2023-02-09T09:43:24.281Z,24.52
2023-02-09T09:45:51.543Z,28.73
2023-02-09T09:48:41.323Z,23.00
2023-02-09T09:51:29.510Z,21.83
2023-02-09T09:54:00.173Z,22.70
2023-02-09T09:56:30.275Z,21.15
2023-02-09T09:58:58.002Z,19.90
2023-02-09T10:01:28.959Z,20.02
2023-02-09T10:04:02.976Z,25.77
2023-02-09T10:06:34.128Z,17.30
2023-02-09T10:09:09.679Z,22.67
2023-02-09T10:12:07.891Z,19.65
2023-02-09T10:14:34.937Z,16.27
2023-02-09T10:17:02.029Z,24.73
2023-02-09T10:19:30.531Z,14.63
2023-02-09T10:21:57.699Z,16.65
2023-02-09T10:24:31.739Z,14.05
2023-02-09T10:27:14.465Z,12.13
2023-02-09T10:29:42.147Z,16.30
2023-02-09T10:32:11.867Z,14.82
2023-02-09T10:34:38.989Z,13.73
2023-02-09T10:37:21.961Z,13.05
2023-02-09T10:40:05.053Z,14.95
2023-02-09T10:42:34.623Z,13.63
2023-02-09T10:45:20.957Z,13.85
2023-02-09T10:48:15.803Z,13.63
2023-02-09T10:51:09.153Z,16.08
2023-02-09T10:53:56.609Z,16.52
2023-02-09T10:56:34.280Z,13.25
2023-02-09T10:59:04.502Z,16.30
2023-02-09T11:01:43.762Z,16.33
2023-02-09T11:04:16.615Z,19.88
2023-02-09T11:06:47.477Z,16.00
2023-02-09T11:09:22.265Z,12.73
2023-02-09T11:11:49.524Z,18.67
2023-02-09T11:14:19.248Z,15.55
2023-02-09T11:16:46.367Z,13.45
2023-02-09T11:19:37.111Z,16.27
2023-02-09T11:22:28.947Z,15.57
2023-02-09T11:25:20.238Z,14.73
2023-02-09T11:28:11.808Z,15.55
2023-02-09T11:31:19.498Z,11.57
2023-02-09T11:33:52.787Z,11.52
2023-02-09T11:36:34.334Z,11.73
2023-02-09T11:39:09.823Z,13.98
2023-02-09T11:42:03.410Z,12.15
2023-02-09T11:45:09.119Z,13.38
2023-02-09T11:48:01.602Z,15.52
2023-02-09T11:50:40.249Z,16.73
2023-02-09T11:53:26.570Z,15.30
2023-02-09T11:55:57.787Z,10.25
2023-02-09T11:58:31.838Z,12.00
2023-02-09T12:01:25.324Z,12.63
2023-02-09T12:04:09.597Z,11.30
2023-02-09T12:06:44.908Z,12.70
2023-02-09T12:09:52.548Z,19.52
2023-02-09T12:12:25.795Z,12.27
2023-02-09T12:15:17.823Z,11.95
2023-02-09T12:18:01.333Z,13.50
2023-02-09T12:20:37.367Z,13.93
2023-02-09T12:23:18.150Z,12.95
2023-02-09T12:26:00.023Z,11.65
2023-02-09T12:28:32.870Z,17.80
2023-02-09T12:31:02.931Z,11.70
2023-02-09T12:33:34.501Z,11.30
2023-02-09T12:36:06.177Z,11.02
2023-02-09T12:38:55.944Z,12.50
2023-02-09T12:41:33.888Z,12.05
2023-02-09T12:44:10.265Z,13.90
2023-02-09T12:46:46.979Z,16.35
2023-02-09T12:49:14.074Z,12.05
2023-02-09T12:51:47.118Z,13.85
2023-02-09T12:54:44.669Z,14.57
2023-02-09T12:57:20.580Z,13.90
2023-02-09T12:59:50.874Z,11.68
2023-02-09T13:02:43.136Z,11.88
2023-02-09T13:05:27.122Z,12.68
2023-02-09T13:08:13.474Z,13.75
2023-02-09T13:10:47.481Z,12.18
2023-02-09T13:13:32.474Z,14.27
2023-02-09T13:16:05.266Z,10.65
2023-02-09T13:18:55.530Z,11.27
2023-02-09T13:21:39.510Z,11.23
2023-02-09T13:24:23.930Z,11.95
2023-02-09T13:26:56.746Z,13.35
2023-02-09T13:29:29.321Z,13.23
2023-02-09T13:32:15.273Z,9.00
2023-02-09T13:35:01.631Z,15.38
2023-02-09T13:37:47.950Z,14.88
2023-02-09T13:40:15.214Z,12.43
2023-02-09T13:42:56.471Z,15.45
2023-02-09T13:45:26.993Z,11.35
2023-02-09T13:47:55.962Z,13.00
2023-02-09T13:50:28.762Z,11.27
2023-02-09T13:53:09.392Z,12.68
2023-02-09T13:55:40.025Z,11.82
2023-02-09T13:58:09.331Z,11.40
2023-02-09T14:00:43.898Z,11.85
2023-02-09T14:03:24.819Z,16.13
2023-02-09T14:06:09.067Z,13.40
2023-02-09T14:08:40.566Z,12.15
2023-02-09T14:11:41.959Z,13.27
2023-02-09T14:14:24.530Z,9.73
2023-02-09T14:17:24.278Z,14.57
2023-02-09T14:19:53.038Z,12.85
2023-02-09T14:22:30.555Z,12.48
2023-02-09T14:24:57.949Z,15.68
2023-02-09T14:27:29.681Z,11.32
2023-02-09T14:29:56.956Z,13.45
2023-02-09T14:32:35.643Z,13.10
2023-02-09T14:35:20.242Z,14.40
2023-02-09T14:37:49.401Z,12.75
2023-02-09T14:40:32.039Z,13.27
2023-02-09T14:43:02.375Z,12.75
2023-02-09T14:45:31.289Z,12.88
2023-02-09T14:47:58.397Z,11.82
2023-02-09T14:50:25.454Z,11.95
2023-02-09T14:53:03.404Z,12.43
2023-02-09T14:55:32.480Z,9.05
2023-02-09T14:57:59.507Z,16.23
2023-02-09T15:00:30.956Z,13.00
2023-02-09T15:03:00.235Z,13.80
2023-02-09T15:05:29.166Z,11.02
2023-02-09T15:08:03.706Z,12.35
2023-02-09T15:10:35.884Z,18.05
2023-02-09T15:13:04.546Z,13.65
2023-02-09T15:15:33.880Z,14.25
2023-02-09T15:18:01.132Z,13.25
2023-02-09T15:20:30.993Z,11.30
2023-02-09T15:22:58.157Z,11.90
2023-02-09T15:25:26.281Z,14.40
2023-02-09T15:27:58.148Z,15.52
2023-02-09T15:30:31.889Z,11.57
2023-02-09T15:32:59.680Z,10.43
2023-02-09T15:35:28.378Z,12.38
2023-02-09T15:37:58.170Z,14.57
2023-02-09T15:40:54.677Z,15.80
2023-02-09T15:43:43.499Z,10.88
2023-02-09T15:46:30.158Z,10.43
2023-02-09T15:48:57.436Z,11.05
2023-02-09T15:51:28.901Z,11.90
2023-02-09T15:53:58.878Z,11.65
2023-02-09T15:56:26.106Z,14.18
2023-02-09T15:58:54.732Z,12.88
2023-02-09T16:01:21.798Z,11.68
2023-02-09T16:03:49.377Z,10.85
2023-02-09T16:06:25.018Z,19.30
2023-02-09T16:08:53.733Z,14.60
2023-02-09T16:11:27.270Z,14.55
2023-02-09T16:13:55.568Z,12.02
2023-02-09T16:16:25.207Z,11.45
2023-02-09T16:18:52.549Z,10.23
2023-02-09T16:21:27.031Z,13.55
2023-02-09T16:23:59.485Z,13.30
2023-02-09T16:26:28.908Z,14.52
2023-02-09T16:28:57.111Z,12.40
2023-02-09T16:31:25.792Z,13.93
2023-02-09T16:33:53.650Z,15.98
2023-02-09T16:36:26.548Z,16.05
2023-02-09T16:38:53.875Z,19.42
2023-02-09T16:41:39.803Z,12.20
2023-02-09T16:44:25.162Z,12.18
2023-02-09T16:46:59.606Z,14.20
2023-02-09T16:49:40.512Z,24.48
2023-02-09T16:52:20.639Z,15.30
2023-02-09T16:54:52.322Z,12.50
2023-02-09T16:57:23.580Z,12.88
2023-02-09T16:59:51.829Z,16.10
2023-02-09T17:02:32.400Z,10.77
2023-02-09T17:05:01.349Z,13.70
2023-02-09T17:07:48.798Z,13.93
2023-02-09T17:10:26.285Z,11.60
2023-02-09T17:12:54.201Z,10.57
2023-02-09T17:15:30.592Z,14.85
2023-02-09T17:18:04.339Z,14.82
2023-02-09T17:20:38.541Z,14.77
2023-02-09T17:23:06.182Z,13.30
2023-02-09T17:25:34.206Z,14.35
2023-02-09T17:28:03.599Z,12.43
2023-02-09T17:30:31.895Z,16.38
2023-02-09T17:33:05.484Z,12.27
2023-02-09T17:36:10.009Z,13.10
2023-02-09T17:38:41.745Z,12.95
2023-02-09T17:41:16.898Z,14.13
2023-02-09T17:43:47.466Z,13.25
2023-02-09T17:46:20.492Z,14.27
2023-02-09T17:48:49.588Z,12.95
2023-02-09T17:51:32.482Z,16.88
2023-02-09T17:54:01.628Z,16.77
2023-02-09T17:56:29.394Z,14.60
2023-02-09T17:58:57.532Z,13.07
2023-02-09T18:01:28.416Z,14.27
2023-02-09T18:03:58.738Z,13.73
2023-02-09T18:06:39.093Z,13.88
2023-02-09T18:09:10.347Z,16.13
2023-02-09T18:11:53.393Z,14.65
2023-02-09T18:14:23.643Z,14.48
2023-02-09T18:16:53.346Z,12.10
2023-02-09T18:19:21.942Z,15.38
2023-02-09T18:21:49.965Z,14.27
2023-02-09T18:24:19.444Z,17.70
2023-02-09T18:26:48.481Z,22.80
2023-02-09T18:29:15.936Z,13.90
2023-02-09T18:31:43.795Z,17.83
2023-02-09T18:34:12.495Z,13.00
2023-02-09T18:36:41.463Z,22.77
2023-02-09T18:39:09.452Z,19.83
2023-02-09T18:41:37.206Z,21.40
2023-02-09T18:44:04.949Z,13.55
2023-02-09T18:46:32.778Z,21.40
2023-02-09T18:49:02.586Z,14.48
2023-02-09T18:51:32.758Z,16.98
2023-02-09T18:54:00.777Z,15.88
2023-02-09T18:56:29.745Z,16.45
2023-02-09T18:58:57.646Z,16.50
2023-02-09T19:01:26.013Z,13.02
2023-02-09T19:03:55.276Z,13.88
2023-02-09T19:06:27.550Z,15.95
2023-02-09T19:08:56.569Z,12.27
2023-02-09T19:11:24.851Z,16.58
2023-02-09T19:14:22.063Z,11.80
2023-02-09T19:16:50.114Z,17.42
2023-02-09T19:19:19.762Z,14.77
2023-02-09T19:21:54.336Z,14.88
2023-02-09T19:24:23.021Z,12.93
2023-02-09T19:26:50.611Z,16.67
2023-02-09T19:29:19.070Z,12.88
2023-02-09T19:31:46.722Z,13.30
2023-02-09T19:34:14.327Z,15.55
2023-02-09T19:36:41.858Z,17.13
2023-02-09T19:39:12.442Z,15.10
2023-02-09T19:41:42.231Z,15.10
2023-02-09T19:44:10.405Z,12.75
2023-02-09T19:46:38.709Z,16.33
2023-02-09T19:49:07.136Z,16.30
2023-02-09T19:51:35.101Z,11.82
2023-02-09T19:54:06.297Z,12.23
2023-02-09T19:56:34.244Z,16.52
2023-02-09T19:59:02.256Z,17.58
2023-02-09T20:01:32.275Z,17.23
2023-02-09T20:04:00.502Z,16.60
2023-02-09T20:06:30.880Z,15.55
2023-02-09T20:09:03.440Z,14.35
2023-02-09T20:11:31.131Z,16.77
2023-02-09T20:14:02.432Z,19.48
2023-02-09T20:16:30.468Z,17.40
2023-02-09T20:19:00.570Z,18.58
2023-02-09T20:21:28.772Z,15.75
2023-02-09T20:23:57.170Z,17.02
2023-02-09T20:26:30.139Z,14.40
2023-02-09T20:28:59.237Z,15.93
2023-02-09T20:31:30.843Z,18.35
2023-02-09T20:33:59.203Z,14.18
2023-02-09T20:36:27.696Z,15.90
2023-02-09T20:38:55.682Z,14.35
2023-02-09T20:41:25.081Z,15.35
2023-02-09T20:44:11.383Z,23.50
2023-02-09T20:46:59.274Z,27.00
2023-02-09T20:49:31.859Z,19.45
2023-02-09T20:52:02.785Z,14.65
2023-02-09T20:54:32.366Z,19.20
2023-02-09T20:57:01.795Z,15.90
2023-02-09T20:59:31.255Z,15.02
2023-02-09T21:01:59.933Z,25.42
2023-02-09T21:04:28.153Z,23.05
2023-02-09T21:06:56.245Z,21.60
2023-02-09T21:09:27.098Z,17.67
2023-02-09T21:11:55.934Z,19.10
2023-02-09T21:14:40.858Z,16.83
2023-02-09T21:17:09.469Z,14.38
2023-02-09T21:19:37.511Z,16.25
2023-02-09T21:22:05.641Z,15.70
2023-02-09T21:24:33.433Z,14.40
2023-02-09T21:27:01.082Z,14.73
2023-02-09T21:29:29.855Z,15.43
2023-02-09T21:32:02.375Z,16.15
2023-02-09T21:34:29.627Z,18.17
2023-02-09T21:36:57.119Z,20.13
2023-02-09T21:39:25.088Z,18.95
2023-02-09T21:42:10.753Z,21.70
2023-02-09T21:44:38.506Z,13.57
2023-02-09T21:47:05.781Z,27.15
2023-02-09T21:49:33.980Z,14.48
2023-02-09T21:52:01.014Z,18.52
2023-02-09T21:54:33.536Z,20.23
2023-02-09T21:57:03.863Z,16.08
2023-02-09T21:59:31.044Z,16.83
2023-02-09T22:01:58.256Z,17.08
2023-02-09T22:04:26.215Z,14.55
2023-02-09T22:06:53.312Z,12.65
2023-02-09T22:09:20.751Z,15.38
2023-02-09T22:11:47.813Z,13.10
2023-02-09T22:14:15.001Z,20.08
2023-02-09T22:16:42.969Z,14.02
2023-02-09T22:19:10.286Z,15.70
2023-02-09T22:21:37.634Z,17.77
2023-02-09T22:24:04.926Z,16.15
2023-02-09T22:26:32.023Z,21.40
2023-02-09T22:28:59.075Z,19.67
2023-02-09T22:31:26.180Z,17.15
2023-02-09T22:33:54.181Z,13.82
2023-02-09T22:36:22.515Z,13.63
2023-02-09T22:38:49.600Z,16.95
2023-02-09T22:41:22.709Z,16.75
2023-02-09T22:43:58.453Z,16.52
2023-02-09T22:46:31.260Z,16.17
2023-02-09T22:49:01.834Z,12.63
2023-02-09T22:51:30.932Z,16.13
2023-02-09T22:53:59.738Z,20.77
2023-02-09T22:56:28.828Z,17.92
2023-02-09T22:59:01.194Z,15.88
2023-02-09T23:01:29.632Z,15.45
2023-02-09T23:03:57.972Z,17.10
2023-02-09T23:06:27.937Z,12.25
2023-02-09T23:08:57.682Z,16.95
2023-02-09T23:11:25.339Z,15.27
2023-02-09T23:14:07.086Z,14.75
2023-02-09T23:16:35.952Z,15.02
2023-02-09T23:19:06.361Z,15.57
2023-02-09T23:21:38.957Z,13.32
2023-02-09T23:24:07.696Z,16.00
2023-02-09T23:26:35.886Z,17.58
2023-02-09T23:29:05.318Z,17.63
2023-02-09T23:31:32.433Z,14.05
2023-02-09T23:33:59.637Z,17.35
2023-02-09T23:36:29.373Z,13.13
2023-02-09T23:38:59.000Z,19.88
2023-02-09T23:41:26.432Z,17.65
2023-02-09T23:43:54.315Z,19.38
2023-02-09T23:46:24.194Z,18.58
2023-02-09T23:48:55.008Z,14.98
2023-02-09T23:51:31.642Z,14.95
2023-02-09T23:54:01.359Z,15.55
2023-02-09T23:56:30.353Z,19.70
2023-02-09T23:58:57.568Z,13.82
